Time;durP1;ratioP1;P1;durP2;ratioP2;P2;SDS_P1;SDS_P2;PMS_P1;PMS_P2;Temp;Humidity;BMP_temperature;BMP_pressure;BME280_temperature;BME280_humidity;BME280_pressure;Samples;Min_cycle;Max_cycle;Signal;HPM_P1;HPM_P2
2022/03/21 00:00:45;;;;;;;28.30;15.90;;;;;;;1.16;63.72;101372.44;5064672;28;20250;-69
2022/03/21 00:03:15;;;;;;;26.77;15.33;;;;;;;1.19;64.08;101372.56;5061952;28;20660;-70
2022/03/21 00:05:42;;;;;;;28.80;16.83;;;;;;;1.22;64.38;101373.56;5052875;28;20668;-69
2022/03/21 00:08:11;;;;;;;18.97;14.37;;;;;;;1.22;64.38;101377.75;5061082;28;20284;-69
2022/03/21 00:10:38;;;;;;;29.57;15.73;;;;;;;1.14;64.58;101364.81;5065214;28;20618;-69
2022/03/21 00:13:05;;;;;;;27.57;14.57;;;;;;;1.01;64.61;101358.41;5063757;28;20288;-69
2022/03/21 00:15:34;;;;;;;27.33;15.87;;;;;;;0.90;65.29;101354.63;5071126;28;20279;-69
2022/03/21 00:18:03;;;;;;;26.63;15.20;;;;;;;0.76;65.99;101344.75;5070898;28;20207;-69
2022/03/21 00:20:31;;;;;;;30.40;16.80;;;;;;;0.56;67.82;101353.16;5067974;28;20200;-69
2022/03/21 00:22:59;;;;;;;26.37;15.43;;;;;;;0.37;69.29;101344.00;5060864;28;20585;-69
2022/03/21 00:25:26;;;;;;;28.00;15.80;;;;;;;0.29;69.44;101347.88;5058848;28;20291;-70
2022/03/21 00:27:53;;;;;;;29.83;16.33;;;;;;;0.18;70.87;101344.88;5052403;28;20604;-70
2022/03/21 00:30:20;;;;;;;31.93;14.93;;;;;;;0.07;71.76;101353.63;5058580;28;20208;-70
2022/03/21 00:32:47;;;;;;;23.47;15.30;;;;;;;0.02;72.39;101344.16;5059198;28;20733;-70
2022/03/21 00:35:16;;;;;;;24.63;15.50;;;;;;;-0.23;73.49;101322.94;5067994;28;20678;-70
2022/03/21 00:37:45;;;;;;;24.70;15.17;;;;;;;-0.22;74.30;101344.81;5067752;28;20235;-70
2022/03/21 00:40:13;;;;;;;25.23;14.93;;;;;;;-0.38;75.31;101342.41;5067266;28;20744;-70
2022/03/21 00:42:41;;;;;;;33.07;16.40;;;;;;;-0.43;75.95;101336.31;5063642;28;20207;-70
2022/03/21 00:45:13;;;;;;;31.83;16.37;;;;;;;-0.35;75.42;101337.50;5070334;28;20290;-70
2022/03/21 00:47:40;;;;;;;31.83;16.47;;;;;;;-0.32;75.18;101332.59;5064486;28;20200;-70
2022/03/21 00:50:09;;;;;;;28.43;14.43;;;;;;;-0.33;74.48;101327.50;5068839;28;20578;-70
2022/03/21 00:52:42;;;;;;;23.67;13.33;;;;;;;-0.46;73.57;101297.53;5065414;28;20596;-70
2022/03/21 00:55:10;;;;;;;26.50;13.17;;;;;;;-0.40;73.42;101323.84;5069321;28;20207;-70
2022/03/21 00:57:37;;;;;;;18.03;11.93;;;;;;;-0.46;73.85;101322.72;5070190;28;20228;-70
2022/03/21 01:00:08;;;;;;;22.63;14.23;;;;;;;-0.57;74.35;101319.72;5066004;28;20664;-70
2022/03/21 01:02:35;;;;;;;22.23;13.63;;;;;;;-0.55;74.56;101323.19;5062261;28;20684;-69
2022/03/21 01:05:03;;;;;;;24.37;14.03;;;;;;;-0.51;74.50;101319.97;5055215;28;20197;-70
2022/03/21 01:07:30;;;;;;;22.57;13.60;;;;;;;-0.45;73.93;101299.25;5051623;28;20197;-70
2022/03/21 01:09:59;;;;;;;21.43;13.47;;;;;;;-0.31;73.35;101314.16;5064414;28;20684;-70
2022/03/21 01:12:28;;;;;;;21.33;12.70;;;;;;;-0.39;72.86;101290.31;5069549;28;20223;-70
2022/03/21 01:14:55;;;;;;;20.93;13.30;;;;;;;-0.21;72.26;101305.34;5063453;28;20283;-70
2022/03/21 01:17:22;;;;;;;20.43;12.13;;;;;;;-0.27;72.72;101305.97;5068796;28;20255;-70
2022/03/21 01:19:49;;;;;;;21.00;13.10;;;;;;;-0.31;72.28;101296.53;5066954;28;20287;-69
2022/03/21 01:22:16;;;;;;;20.53;12.33;;;;;;;-0.48;72.71;101284.00;5069388;28;20192;-70
2022/03/21 01:24:43;;;;;;;21.77;11.90;;;;;;;-0.41;73.09;101301.97;5060324;28;20295;-69
2022/03/21 01:27:12;;;;;;;19.30;13.07;;;;;;;-0.39;73.56;101302.03;5068254;28;20207;-70
2022/03/21 01:29:39;;;;;;;19.93;12.67;;;;;;;-0.42;74.16;101310.31;5067467;28;20208;-70
2022/03/21 01:32:06;;;;;;;15.87;11.93;;;;;;;-0.36;73.99;101305.56;5068023;28;20302;-70
2022/03/21 01:34:33;;;;;;;14.13;11.30;;;;;;;-0.49;73.10;101275.59;5068157;28;20751;-70
2022/03/21 01:37:00;;;;;;;18.37;11.93;;;;;;;-0.32;72.50;101306.56;5066224;28;20298;-70
2022/03/21 01:39:27;;;;;;;15.17;11.57;;;;;;;-0.33;71.98;101305.69;5069537;28;20207;-70
2022/03/21 01:41:54;;;;;;;13.43;11.23;;;;;;;-0.30;72.35;101305.81;5069898;28;20227;-69
2022/03/21 01:44:22;;;;;;;12.10;10.00;;;;;;;-0.24;72.00;101306.09;5069606;28;21593;-69
2022/03/21 01:46:50;;;;;;;11.80;10.60;;;;;;;-0.23;71.98;101297.75;5068612;28;20196;-70
2022/03/21 01:49:18;;;;;;;17.27;10.93;;;;;;;-0.19;72.01;101294.53;5059861;28;20204;-70
2022/03/21 01:51:45;;;;;;;22.33;10.70;;;;;;;-0.18;72.11;101285.31;5051770;28;20215;-70
2022/03/21 01:56:58;;;;;;;14.57;10.03;;;;;;;-0.35;72.15;101296.31;5060812;28;20214;-69
2022/03/21 01:59:27;;;;;;;16.40;10.03;;;;;;;-0.36;72.47;101287.91;5069206;28;20294;-70
2022/03/21 02:01:54;;;;;;;10.73;9.50;;;;;;;-0.39;72.20;101281.88;5068871;28;20733;-69
2022/03/21 02:04:21;;;;;;;16.17;10.87;;;;;;;-0.42;72.73;101289.31;5068939;28;20685;-69
2022/03/21 02:06:48;;;;;;;13.10;10.97;;;;;;;-0.44;72.90;101286.72;5069886;28;20295;-70
2022/03/21 02:09:15;;;;;;;14.17;10.77;;;;;;;-0.38;73.52;101286.09;5067668;28;20200;-69
2022/03/21 02:11:42;;;;;;;14.50;10.57;;;;;;;-0.39;74.12;101291.97;5069611;28;20307;-70
2022/03/21 02:14:11;;;;;;;20.03;11.20;;;;;;;-0.49;73.78;101270.53;5056189;28;20200;-69
2022/03/21 02:16:40;;;;;;;11.97;10.27;;;;;;;-0.36;74.21;101285.41;5068999;28;20287;-70
2022/03/21 02:19:14;;;;;;;14.70;10.73;;;;;;;-0.30;74.35;101280.63;5055148;28;20287;-69
2022/03/21 02:21:52;;;;;;;14.27;10.47;;;;;;;-0.32;74.33;101277.16;5060091;28;20199;-70
2022/03/21 02:24:30;;;;;;;18.13;11.90;;;;;;;-0.28;74.31;101289.09;5064930;28;20205;-70
2022/03/21 02:27:01;;;;;;;21.37;12.30;;;;;;;-0.24;73.59;101290.97;5070070;28;20204;-70
2022/03/21 02:29:30;;;;;;;19.00;11.30;;;;;;;-0.16;72.63;101293.81;5066164;28;20200;-70
2022/03/21 02:31:57;;;;;;;22.03;11.43;;;;;;;-0.22;72.09;101266.69;5073200;28;20223;-70
2022/03/21 02:34:26;;;;;;;18.50;11.47;;;;;;;0.02;71.73;101298.78;5072933;28;20196;-70
2022/03/21 02:36:55;;;;;;;18.00;11.43;;;;;;;-0.04;71.21;101295.22;5064630;28;20673;-70
2022/03/21 02:39:23;;;;;;;21.13;11.27;;;;;;;-0.03;71.44;101301.09;5056000;28;20294;-69
2022/03/21 02:41:50;;;;;;;15.83;10.33;;;;;;;-0.03;71.00;101303.59;5064232;28;20275;-70
2022/03/21 02:44:18;;;;;;;20.43;11.27;;;;;;;0.06;70.45;101295.59;5072732;28;20622;-69
2022/03/21 02:46:46;;;;;;;14.10;10.77;;;;;;;0.07;70.49;101299.81;5072748;28;20287;-70
2022/03/21 02:49:15;;;;;;;20.83;10.97;;;;;;;0.04;70.94;101302.22;5066077;28;20669;-70
2022/03/21 02:51:43;;;;;;;16.10;10.90;;;;;;;-0.01;71.27;101295.34;5063159;28;20212;-70
2022/03/21 02:54:10;;;;;;;19.77;11.57;;;;;;;-0.06;71.89;101301.81;5065115;28;20200;-70
2022/03/21 02:56:38;;;;;;;21.13;11.57;;;;;;;-0.12;72.64;101304.09;5060475;28;20215;-70
2022/03/21 02:59:05;;;;;;;14.67;11.40;;;;;;;-0.25;73.24;101286.72;5070037;28;20275;-70
2022/03/21 03:01:33;;;;;;;16.43;11.83;;;;;;;-0.29;73.04;101289.88;5064590;28;20258;-69
2022/03/21 03:04:01;;;;;;;13.23;10.30;;;;;;;-0.13;72.58;101299.84;5072576;28;20672;-70
2022/03/21 03:06:28;;;;;;;12.67;9.63;;;;;;;-0.06;72.26;101298.44;5067205;28;20199;-69
2022/03/21 03:08:56;;;;;;;15.23;10.60;;;;;;;0.02;72.14;101303.81;5068063;28;20196;-70
2022/03/21 03:11:23;;;;;;;15.07;11.17;;;;;;;0.07;71.95;101305.72;5066531;28;20318;-70
2022/03/21 03:13:50;;;;;;;19.17;11.07;;;;;;;0.03;71.48;101295.47;5068109;28;20204;-70
2022/03/21 03:16:17;;;;;;;15.67;10.27;;;;;;;0.18;70.92;101306.19;5066075;28;20393;-70
2022/03/21 03:18:45;;;;;;;13.27;10.67;;;;;;;0.16;70.16;101298.56;5066615;28;20200;-71
2022/03/21 03:21:15;;;;;;;20.53;10.93;;;;;;;0.23;70.39;101307.22;5061951;28;20224;-70
2022/03/21 03:23:43;;;;;;;19.87;11.53;;;;;;;0.20;70.34;101289.44;5057914;28;20725;-70
2022/03/21 03:26:10;;;;;;;15.93;11.63;;;;;;;0.33;70.11;101296.72;5066355;28;20215;-70
2022/03/21 03:28:38;;;;;;;12.33;9.23;;;;;;;0.36;69.75;101296.84;5065320;28;20208;-68
2022/03/21 03:31:06;;;;;;;18.17;11.37;;;;;;;0.39;69.35;101299.50;5071730;28;20203;-69
2022/03/21 03:33:33;;;;;;;18.03;11.40;;;;;;;0.36;68.80;101286.75;5072086;28;20261;-71
2022/03/21 03:36:01;;;;;;;22.37;12.80;;;;;;;0.41;68.66;101295.38;5072067;28;20242;-69
2022/03/21 03:38:28;;;;;;;15.83;10.27;;;;;;;0.33;69.15;101291.69;5070567;28;20261;-69
2022/03/21 03:40:55;;;;;;;12.90;10.77;;;;;;;0.29;69.35;101284.81;5065348;28;20196;-69
2022/03/21 03:43:23;;;;;;;14.27;10.83;;;;;;;0.28;69.34;101290.63;5071764;28;20219;-69
2022/03/21 03:45:52;;;;;;;17.23;10.73;;;;;;;0.30;69.24;101282.31;5067129;28;20201;-69
2022/03/21 03:48:20;;;;;;;15.77;12.10;;;;;;;0.28;69.08;101283.06;5058105;28;20292;-69
2022/03/21 03:50:47;;;;;;;17.23;11.33;;;;;;;0.31;68.90;101283.19;5071294;28;20204;-69
2022/03/21 03:53:15;;;;;;;18.93;12.00;;;;;;;0.24;68.71;101273.66;5067055;28;20216;-69
2022/03/21 03:55:42;;;;;;;14.13;11.47;;;;;;;0.25;68.86;101290.50;5071552;28;20287;-69
2022/03/21 03:58:09;;;;;;;24.97;11.23;;;;;;;0.20;68.92;101286.91;5068009;28;20797;-69
2022/03/21 04:00:37;;;;;;;17.67;11.43;;;;;;;0.18;69.00;101280.97;5071611;28;20279;-69
2022/03/21 04:05:49;;;;;;;19.57;11.73;;;;;;;0.10;68.81;101274.75;5066300;28;20564;-69
2022/03/21 04:08:17;;;;;;;20.27;11.17;;;;;;;-0.09;69.00;101261.38;5070116;28;20200;-69
2022/03/21 04:10:44;;;;;;;16.60;10.90;;;;;;;0.03;68.95;101276.16;5070933;28;20279;-70
2022/03/21 04:13:11;;;;;;;18.87;10.60;;;;;;;-0.02;69.29;101275.97;5070768;28;20208;-70
2022/03/21 04:15:38;;;;;;;34.00;14.53;;;;;;;-0.09;68.89;101266.41;5071109;28;20283;-70
2022/03/21 04:18:06;;;;;;;29.03;13.33;;;;;;;-0.17;69.26;101274.44;5066322;28;20292;-69
2022/03/21 04:20:33;;;;;;;20.23;12.87;;;;;;;-0.21;69.47;101270.94;5069700;28;20307;-68
2022/03/21 04:23:01;;;;;;;18.27;11.73;;;;;;;-0.23;69.59;101262.47;5062106;28;20644;-68
2022/03/21 04:25:29;;;;;;;18.87;12.27;;;;;;;-0.21;69.42;101275.09;5061489;28;20200;-68
2022/03/21 04:27:56;;;;;;;25.83;11.77;;;;;;;-0.19;69.49;101271.84;5056316;28;20291;-68
2022/03/21 04:30:24;;;;;;;29.57;13.13;;;;;;;-0.26;68.93;101254.72;5066759;28;20222;-68
2022/03/21 04:32:51;;;;;;;26.33;13.97;;;;;;;-0.38;69.69;101261.78;5070730;28;20219;-68
2022/03/21 04:35:17;;;;;;;56.63;14.03;;;;;;;-0.44;70.12;101250.56;5070525;28;20238;-68
2022/03/21 04:37:44;;;;;;;48.43;13.77;;;;;;;-0.47;70.20;101248.78;5066449;28;20196;-68
2022/03/21 04:40:12;;;;;;;24.67;13.10;;;;;;;-0.39;70.08;101275.19;5063046;28;20213;-69
2022/03/21 04:42:41;;;;;;;28.83;15.97;;;;;;;-0.39;70.26;101275.19;5066224;28;20193;-69
2022/03/21 04:45:09;;;;;;;26.43;13.40;;;;;;;-0.46;70.68;101267.28;5060585;28;20208;-66
2022/03/21 04:47:36;;;;;;;23.17;12.30;;;;;;;-0.46;70.97;101268.16;5063054;28;20208;-67
2022/03/21 04:50:03;;;;;;;22.27;12.33;;;;;;;-0.55;71.35;101262.72;5059511;28;20200;-66
2022/03/21 04:52:30;;;;;;;23.67;12.80;;;;;;;-0.53;71.74;101271.19;5057084;28;20623;-67
2022/03/21 04:54:57;;;;;;;24.20;12.03;;;;;;;-0.52;72.35;101283.00;5061040;28;20291;-67
2022/03/21 04:57:25;;;;;;;22.17;12.90;;;;;;;-0.51;72.47;101272.13;5058496;28;20648;-67
2022/03/21 04:59:53;;;;;;;27.27;13.47;;;;;;;-0.54;72.35;101264.41;5066068;28;20207;-67
2022/03/21 05:02:20;;;;;;;19.67;12.03;;;;;;;-0.55;72.78;101265.25;5060963;28;20193;-67
2022/03/21 05:04:48;;;;;;;20.67;13.27;;;;;;;-0.59;73.02;101271.78;5060233;28;20204;-68
2022/03/21 05:07:16;;;;;;;33.27;15.47;;;;;;;-0.55;73.55;101277.84;5068921;28;20287;-67
2022/03/21 05:09:43;;;;;;;17.97;13.53;;;;;;;-0.50;73.35;101280.53;5063533;28;20196;-67
2022/03/21 05:12:11;;;;;;;19.27;12.70;;;;;;;-0.46;73.30;101283.28;5067589;28;20270;-68
2022/03/21 05:14:39;;;;;;;25.37;12.17;;;;;;;-0.41;73.62;101280.94;5061621;28;21004;-65
2022/03/21 05:17:09;;;;;;;25.70;13.70;;;;;;;-0.37;73.51;101268.56;5063924;28;20261;-64
2022/03/21 05:19:37;;;;;;;17.07;11.27;;;;;;;-0.29;73.09;101271.41;5065328;28;20664;-66
2022/03/21 05:22:04;;;;;;;18.87;11.70;;;;;;;-0.15;72.74;101270.31;5060415;28;20200;-66
2022/03/21 05:32:46;;;;;;;15.00;10.37;;;;;;;0.78;70.37;101292.66;5064324;28;20761;-66
2022/03/21 05:37:57;;;;;;;16.50;11.60;;;;;;;1.07;68.23;101299.69;5064729;28;20246;-67
2022/03/21 05:40:34;;;;;;;13.77;11.03;;;;;;;1.15;67.45;101292.41;5068612;28;20203;-66
2022/03/21 05:43:01;;;;;;;19.57;11.97;;;;;;;1.25;67.32;101299.53;5057810;28;20254;-67
2022/03/21 05:45:28;;;;;;;16.73;12.23;;;;;;;1.32;67.80;101301.50;5057340;28;20291;-67
2022/03/21 05:50:41;;;;;;;18.27;11.10;;;;;;;1.61;66.84;101312.66;5052499;28;20691;-67
2022/03/21 05:53:09;;;;;;;18.50;12.63;;;;;;;1.79;66.74;101299.00;5065091;28;20223;-67
2022/03/21 05:55:37;;;;;;;18.10;12.33;;;;;;;1.97;66.48;101309.75;5063869;28;20200;-67
2022/03/21 05:58:04;;;;;;;21.30;12.57;;;;;;;2.08;66.44;101308.47;5068415;28;20276;-67
2022/03/21 06:00:34;;;;;;;16.23;11.73;;;;;;;2.26;64.73;101308.25;5061978;28;20241;-68
2022/03/21 06:03:02;;;;;;;15.83;12.40;;;;;;;2.62;62.59;101318.69;5055934;28;20207;-68
2022/03/21 06:05:29;;;;;;;15.30;11.20;;;;;;;2.86;61.28;101323.69;5066013;28;20203;-68
2022/03/21 06:07:56;;;;;;;13.80;11.77;;;;;;;3.10;60.88;101312.66;5064080;28;20245;-67
2022/03/21 06:10:23;;;;;;;22.23;13.37;;;;;;;3.32;60.57;101315.84;5060079;28;20204;-68
2022/03/21 06:12:50;;;;;;;16.07;13.27;;;;;;;3.50;60.24;101322.28;5067965;28;20687;-68
2022/03/21 06:15:17;;;;;;;17.60;12.90;;;;;;;3.39;59.31;101288.19;5063219;28;20271;-68
2022/03/21 06:17:45;;;;;;;17.63;12.13;;;;;;;3.79;59.75;101318.03;5062955;28;20227;-68
2022/03/21 06:20:15;;;;;;;13.37;11.97;;;;;;;3.98;59.59;101317.72;5067681;28;20291;-68
2022/03/21 06:22:43;;;;;;;17.17;11.67;;;;;;;4.15;57.90;101324.13;5059051;28;20211;-67
2022/03/21 06:25:11;;;;;;;15.70;11.23;;;;;;;4.29;58.54;101314.34;5063742;28;20727;-68
2022/03/21 06:27:39;;;;;;;15.37;12.27;;;;;;;4.33;58.63;101316.09;5058235;28;20205;-68
2022/03/21 06:30:08;;;;;;;14.50;12.17;;;;;;;4.39;58.23;101321.38;5059743;28;20215;-68
2022/03/21 06:32:35;;;;;;;13.53;11.67;;;;;;;4.51;57.45;101313.19;5060626;28;20247;-67
2022/03/21 06:35:04;;;;;;;15.60;12.40;;;;;;;4.73;55.76;101334.06;5058581;28;20675;-70
2022/03/21 06:37:33;;;;;;;23.63;13.13;;;;;;;4.82;55.11;101335.97;5063095;28;20304;-67
2022/03/21 06:40:00;;;;;;;21.47;14.57;;;;;;;4.95;54.73;101335.44;5062585;28;20200;-69
2022/03/21 06:42:27;;;;;;;19.23;14.43;;;;;;;5.04;52.64;101329.72;5058511;28;20275;-68
2022/03/21 06:44:54;;;;;;;20.90;13.73;;;;;;;5.15;54.25;101334.22;5059382;28;20200;-68
2022/03/21 06:47:21;;;;;;;21.27;12.63;;;;;;;5.28;53.06;101326.03;5059724;28;20275;-68
2022/03/21 06:49:48;;;;;;;20.80;13.43;;;;;;;5.41;53.03;101336.47;5062284;28;20278;-69
2022/03/21 06:52:16;;;;;;;17.50;12.77;;;;;;;5.43;52.67;101335.66;5060204;28;20251;-66
2022/03/21 06:54:45;;;;;;;18.33;11.77;;;;;;;5.50;52.94;101327.34;5063801;28;20204;-67
2022/03/21 06:57:12;;;;;;;15.57;12.60;;;;;;;5.69;53.46;101328.56;5060792;28;20228;-68
2022/03/21 06:59:39;;;;;;;19.10;10.77;;;;;;;5.81;51.97;101303.38;5060225;28;20205;-67
2022/03/21 07:02:06;;;;;;;21.83;11.37;;;;;;;6.03;52.12;101325.91;5065326;28;20292;-68
2022/03/21 07:04:33;;;;;;;12.50;11.37;;;;;;;6.10;49.79;101329.44;5067874;28;20326;-67
2022/03/21 07:07:00;;;;;;;13.03;11.33;;;;;;;6.12;49.61;101320.97;5063798;28;20696;-67
2022/03/21 07:09:27;;;;;;;19.53;12.73;;;;;;;6.26;49.80;101317.00;5066115;28;20216;-69
2022/03/21 07:11:55;;;;;;;19.70;12.50;;;;;;;6.45;48.87;101319.88;5065984;28;20744;-67
2022/03/21 07:14:22;;;;;;;14.63;12.27;;;;;;;6.66;49.04;101315.97;5064145;28;20228;-67
2022/03/21 07:16:50;;;;;;;12.43;11.13;;;;;;;6.86;47.25;101318.84;5059824;28;20282;-67
2022/03/21 07:19:17;;;;;;;12.30;10.73;;;;;;;6.95;46.11;101300.28;5064048;28;20212;-67
2022/03/21 07:21:44;;;;;;;12.53;11.10;;;;;;;7.24;45.74;101315.16;5062747;28;20287;-67
2022/03/21 07:24:11;;;;;;;14.33;10.90;;;;;;;7.50;45.84;101320.59;5060587;28;20203;-67
2022/03/21 07:26:38;;;;;;;11.33;10.33;;;;;;;7.72;45.33;101311.53;5061183;28;20708;-68
2022/03/21 07:29:06;;;;;;;13.47;11.10;;;;;;;7.92;44.32;101310.03;5059304;28;20204;-68
2022/03/21 07:31:34;;;;;;;11.80;10.43;;;;;;;8.11;43.74;101306.84;5062959;28;20216;-69
2022/03/21 07:34:01;;;;;;;12.60;10.40;;;;;;;8.15;43.20;101293.28;5061567;28;20212;-69
2022/03/21 07:36:30;;;;;;;13.97;10.83;;;;;;;8.40;42.38;101300.34;5061363;28;20203;-70
2022/03/21 07:38:57;;;;;;;22.63;11.10;;;;;;;8.68;42.16;101309.13;5060380;28;20196;-71
2022/03/21 07:41:26;;;;;;;12.43;10.43;;;;;;;8.77;39.65;101308.31;5061446;28;20204;-70
2022/03/21 07:43:55;;;;;;;11.50;10.13;;;;;;;9.01;40.25;101302.53;5065258;28;20227;-71
2022/03/21 07:49:08;;;;;;;22.90;11.73;;;;;;;9.47;40.70;101292.56;5062304;28;20204;-71
2022/03/21 07:51:35;;;;;;;10.83;9.83;;;;;;;9.60;39.86;101297.72;5067695;28;20672;-70
2022/03/21 07:54:02;;;;;;;11.80;10.13;;;;;;;9.72;38.39;101295.22;5064353;28;20219;-69
2022/03/21 07:56:29;;;;;;;11.07;9.87;;;;;;;9.90;38.67;101283.31;5066758;28;20207;-69
2022/03/21 07:58:59;;;;;;;11.03;9.17;;;;;;;9.99;37.28;101297.84;5060845;28;20275;-69
2022/03/21 08:01:29;;;;;;;11.57;9.80;;;;;;;10.10;35.74;101291.06;5058847;28;20200;-69
2022/03/21 08:03:57;;;;;;;11.73;8.90;;;;;;;9.91;34.22;101294.44;5065363;28;20188;-70
2022/03/21 08:06:24;;;;;;;13.93;12.50;;;;;;;9.83;35.50;101281.59;5064111;28;20257;-70
2022/03/21 08:08:54;;;;;;;11.20;10.10;;;;;;;9.93;34.65;101278.19;5065881;28;20206;-72
2022/03/21 08:11:21;;;;;;;27.47;18.70;;;;;;;10.14;34.71;101281.69;5053502;28;20228;-69
2022/03/21 08:13:50;;;;;;;9.70;8.90;;;;;;;10.21;35.43;101278.31;5062429;28;20238;-69
2022/03/21 08:16:20;;;;;;;16.70;9.63;;;;;;;10.36;36.46;101279.16;5061887;28;20280;-69
2022/03/21 08:18:52;;;;;;;9.80;9.00;;;;;;;10.53;35.44;101277.44;5059563;28;20251;-69
2022/03/21 08:21:21;;;;;;;10.03;9.03;;;;;;;10.73;37.08;101274.00;5064306;28;20207;-70
2022/03/21 08:23:51;;;;;;;10.50;9.63;;;;;;;10.77;33.71;101275.72;5063892;28;20200;-69
2022/03/21 08:26:18;;;;;;;10.53;9.43;;;;;;;10.63;33.55;101273.16;5066976;28;20246;-70
2022/03/21 08:28:46;;;;;;;12.13;10.77;;;;;;;10.54;33.80;101268.03;5063036;28;20295;-69
2022/03/21 08:31:14;;;;;;;11.80;8.90;;;;;;;10.49;34.41;101275.75;5061739;28;20196;-69
2022/03/21 08:33:42;;;;;;;8.87;8.00;;;;;;;10.80;34.11;101266.31;5063968;28;20587;-68
2022/03/21 08:36:12;;;;;;;21.47;10.77;;;;;;;11.03;33.06;101266.28;5063996;28;20204;-69
2022/03/21 08:38:39;;;;;;;9.93;8.97;;;;;;;11.07;35.40;101267.97;5058641;28;20204;-71
2022/03/21 08:41:06;;;;;;;10.33;9.30;;;;;;;11.02;32.97;101269.69;5060594;28;20649;-70
2022/03/21 08:43:33;;;;;;;8.33;7.67;;;;;;;10.91;32.26;101274.88;5058347;28;20275;-69
2022/03/21 08:46:00;;;;;;;21.40;13.33;;;;;;;10.78;31.43;101267.19;5061193;28;20201;-69
2022/03/21 08:51:07;;;;;;;16.13;10.53;;;;;;;10.74;32.10;101266.31;5062299;28;20596;-69
2022/03/21 08:53:36;;;;;;;11.30;8.80;;;;;;;10.96;32.77;101244.03;5059177;28;20245;-68
2022/03/21 08:56:03;;;;;;;8.53;7.63;;;;;;;11.23;33.03;101256.81;5066299;28;20204;-68
2022/03/21 08:58:30;;;;;;;17.17;12.27;;;;;;;11.07;30.82;101257.72;5067684;28;20314;-69
2022/03/21 09:00:57;;;;;;;16.30;14.00;;;;;;;11.05;31.77;101256.84;5057073;28;20585;-68
2022/03/21 09:03:24;;;;;;;40.07;23.43;;;;;;;11.10;31.81;101252.56;5064243;28;20196;-69
2022/03/21 09:05:51;;;;;;;10.77;9.47;;;;;;;11.26;32.26;101256.81;5058904;28;20207;-68
2022/03/21 09:08:18;;;;;;;11.57;8.13;;;;;;;11.37;32.89;101260.16;5061884;28;20204;-68
2022/03/21 09:10:48;;;;;;;9.47;8.53;;;;;;;11.26;31.36;101254.22;5061973;28;20200;-68
2022/03/21 09:13:15;;;;;;;8.77;7.87;;;;;;;11.18;31.20;101253.38;5063242;28;20291;-69
2022/03/21 09:15:42;;;;;;;39.07;8.53;;;;;;;11.21;31.10;101258.50;5064548;28;20214;-69
2022/03/21 09:18:09;;;;;;;13.83;8.47;;;;;;;11.22;31.65;101249.09;5057484;28;20200;-68
2022/03/21 09:20:37;;;;;;;14.70;12.33;;;;;;;11.30;30.07;101252.50;5057828;28;20292;-69
2022/03/21 09:23:04;;;;;;;13.90;10.33;;;;;;;11.09;30.75;101248.28;5062710;28;20584;-70
2022/03/21 09:25:32;;;;;;;8.80;7.97;;;;;;;11.02;30.54;101241.44;5057390;28;20279;-69
2022/03/21 09:28:00;;;;;;;9.07;8.37;;;;;;;10.85;30.65;101244.09;5066275;28;20204;-67
2022/03/21 09:30:27;;;;;;;8.50;7.70;;;;;;;11.12;31.63;101240.56;5062349;28;20262;-68
2022/03/21 09:32:54;;;;;;;12.30;9.67;;;;;;;11.14;31.06;101241.44;5065441;28;20210;-69
2022/03/21 09:35:21;;;;;;;10.90;8.20;;;;;;;11.00;30.60;101244.03;5063899;28;20330;-70
2022/03/21 09:37:48;;;;;;;8.23;7.63;;;;;;;11.01;30.92;101239.75;5063308;28;20560;-69
2022/03/21 09:40:18;;;;;;;7.23;6.67;;;;;;;11.03;31.42;101246.59;5065201;28;20258;-69
2022/03/21 09:42:45;;;;;;;6.57;6.17;;;;;;;11.13;31.26;101238.88;5058319;28;20608;-68
2022/03/21 09:45:14;;;;;;;8.50;7.77;;;;;;;11.24;31.39;101232.84;5065212;28;20203;-68
2022/03/21 09:50:32;;;;;;;14.80;7.17;;;;;;;11.25;31.20;101225.97;5058421;28;20221;-69
2022/03/21 09:53:00;;;;;;;9.67;7.23;;;;;;;11.23;30.48;101223.44;5062360;28;20207;-68
2022/03/21 09:55:27;;;;;;;6.87;6.23;;;;;;;11.36;32.06;101219.97;5058946;28;20307;-69
2022/03/21 09:57:54;;;;;;;8.60;6.93;;;;;;;11.39;31.13;101217.38;5054425;28;20319;-69
2022/03/21 10:00:23;;;;;;;17.70;8.27;;;;;;;11.27;31.20;101222.56;5057636;28;20347;-69
2022/03/21 10:02:50;;;;;;;9.53;7.37;;;;;;;11.50;31.35;101214.75;5064011;28;20288;-69
2022/03/21 10:05:37;;;;;;;6.67;6.27;;;;;;;11.72;32.02;101205.25;5055102;28;20211;-69
2022/03/21 10:08:16;;;;;;;10.03;6.50;;;;;;;11.92;32.06;101203.41;5061370;28;20211;-69
2022/03/21 10:10:55;;;;;;;6.97;6.47;;;;;;;11.93;31.93;101202.53;5065559;28;20207;-68
2022/03/21 10:13:24;;;;;;;7.57;6.97;;;;;;;11.75;30.57;101207.78;5063587;28;20208;-69
2022/03/21 10:16:12;;;;;;;7.33;6.83;;;;;;;11.65;31.13;101198.41;5057433;28;20207;-70
2022/03/21 10:18:55;;;;;;;7.73;7.17;;;;;;;11.60;31.68;101190.72;5053790;28;20208;-69
2022/03/21 10:21:24;;;;;;;6.73;6.23;;;;;;;11.55;31.05;101198.47;5061602;28;20207;-68
2022/03/21 10:23:58;;;;;;;7.90;7.30;;;;;;;11.56;30.75;101195.03;5055307;28;20200;-67
2022/03/21 10:26:27;;;;;;;7.40;7.00;;;;;;;11.64;30.36;101199.25;5055269;28;20203;-68
2022/03/21 10:28:55;;;;;;;7.13;6.40;;;;;;;11.26;30.84;101182.34;5056829;28;20557;-68
2022/03/21 10:31:38;;;;;;;6.60;6.03;;;;;;;11.54;31.13;101181.34;5060296;28;20200;-68
2022/03/21 10:34:07;;;;;;;7.33;6.63;;;;;;;11.61;30.63;101182.16;5056361;28;20285;-68
2022/03/21 10:36:34;;;;;;;9.10;8.30;;;;;;;11.59;30.80;101187.31;5064491;28;20291;-68
2022/03/21 10:39:09;;;;;;;10.97;7.73;;;;;;;11.85;33.17;101182.03;5067332;28;20279;-68
2022/03/21 10:41:37;;;;;;;12.57;10.03;;;;;;;11.75;32.07;101176.97;5068318;28;20616;-68
2022/03/21 10:44:06;;;;;;;12.73;8.60;;;;;;;11.82;31.60;101170.94;5063833;28;20200;-67
2022/03/21 10:46:33;;;;;;;9.50;8.40;;;;;;;11.70;30.84;101170.94;5067598;28;20208;-68
2022/03/21 10:49:06;;;;;;;7.70;7.00;;;;;;;11.54;33.12;101165.91;5060377;28;20201;-67
2022/03/21 10:51:56;;;;;;;8.17;7.57;;;;;;;11.69;32.87;101157.28;5063218;28;20686;-68
2022/03/21 10:54:36;;;;;;;9.83;7.57;;;;;;;11.89;33.21;101163.13;5047007;28;20780;-67
2022/03/21 10:57:05;;;;;;;7.53;6.93;;;;;;;12.02;33.32;101153.63;5063039;28;20314;-67
2022/03/21 10:59:32;;;;;;;7.30;6.70;;;;;;;12.24;32.85;101150.03;5059414;28;20204;-68
2022/03/21 11:02:11;;;;;;;7.07;6.57;;;;;;;12.10;31.99;101146.72;5057710;28;20211;-68
2022/03/21 11:04:42;;;;;;;6.87;6.23;;;;;;;11.77;31.55;101149.53;5065090;28;20246;-68
2022/03/21 11:07:11;;;;;;;8.00;7.30;;;;;;;11.79;31.10;101132.41;5062302;28;20200;-68
2022/03/21 11:09:39;;;;;;;7.93;7.13;;;;;;;12.03;33.29;101139.91;5058805;28;20200;-67
2022/03/21 11:12:07;;;;;;;7.03;6.60;;;;;;;11.97;30.23;101119.41;5066985;28;20226;-68
2022/03/21 11:14:36;;;;;;;8.20;7.40;;;;;;;12.10;31.53;101131.28;5062014;28;20223;-68
2022/03/21 11:17:05;;;;;;;22.70;16.30;;;;;;;12.16;32.86;101128.66;5066560;28;20208;-68
2022/03/21 11:19:32;;;;;;;8.87;7.97;;;;;;;12.39;35.71;101124.16;5061321;28;20196;-68
2022/03/21 11:22:01;;;;;;;6.13;5.73;;;;;;;12.05;30.66;101126.16;5064553;28;20205;-68
2022/03/21 11:24:28;;;;;;;7.00;6.40;;;;;;;12.06;31.72;101119.31;5067222;28;20199;-68
2022/03/21 11:27:09;;;;;;;7.87;7.27;;;;;;;12.14;31.76;101117.53;5067038;28;20196;-67
2022/03/21 11:29:45;;;;;;;9.13;8.33;;;;;;;12.25;32.62;101112.28;5059131;28;20633;-68
2022/03/21 11:32:23;;;;;;;8.83;8.07;;;;;;;12.17;31.65;101107.22;5065396;28;20287;-67
2022/03/21 11:35:00;;;;;;;8.20;7.60;;;;;;;12.17;32.39;101091.78;5061777;28;20302;-67
2022/03/21 11:37:30;;;;;;;8.93;7.37;;;;;;;12.23;33.91;101071.16;5062835;28;20208;-69
2022/03/21 11:40:26;;;;;;;8.33;6.20;;;;;;;12.11;32.77;101091.88;5065661;28;20580;-69
2022/03/21 11:42:54;;;;;;;6.73;6.27;;;;;;;12.05;31.48;101079.06;5063774;28;20201;-68
2022/03/21 11:45:23;;;;;;;10.57;8.50;;;;;;;12.25;32.02;101100.28;5062862;28;20708;-68
2022/03/21 11:47:50;;;;;;;7.13;6.47;;;;;;;12.13;31.21;101084.97;5065613;28;20270;-68
2022/03/21 11:50:26;;;;;;;6.73;6.33;;;;;;;12.32;32.19;101080.50;5063327;28;20222;-69